Time;durP1;ratioP1;P1;durP2;ratioP2;P2;SDS_P1;SDS_P2;PMS_P1;PMS_P2;Temp;Humidity;BMP_temperature;BMP_pressure;BME280_temperature;BME280_humidity;BME280_pressure;Samples;Min_cycle;Max_cycle;Signal;HPM_P1;HPM_P2
2022/03/07 00:00:00;;;;;;;17.85;9.23;;;;;;;;;;4952183;28;20021;-63
2022/03/07 00:02:25;;;;;;;17.08;8.93;;;;;;;;;;4934655;28;20382;-62
2022/03/07 00:04:51;;;;;;;19.30;8.60;;;;;;;;;;4952035;28;20344;-62
2022/03/07 00:07:16;;;;;;;19.17;9.38;;;;;;;;;;4952473;28;20030;-61
2022/03/07 00:09:41;;;;;;;20.90;9.05;;;;;;;;;;4952775;28;20418;-62
2022/03/07 00:12:07;;;;;;;21.35;9.90;;;;;;;;;;4952644;28;20349;-63
2022/03/07 00:14:32;;;;;;;18.48;9.05;;;;;;;;;;4951771;28;20482;-62
2022/03/07 00:16:58;;;;;;;23.08;10.27;;;;;;;;;;4952145;28;20535;-62
2022/03/07 00:19:23;;;;;;;18.15;8.73;;;;;;;;;;4951945;28;20444;-61
2022/03/07 00:21:48;;;;;;;16.88;9.10;;;;;;;;;;4952587;28;20411;-62
2022/03/07 00:24:13;;;;;;;20.27;10.02;;;;;;;;;;4952206;28;20524;-63
2022/03/07 00:26:39;;;;;;;16.13;8.70;;;;;;;;;;4952183;28;20337;-62
2022/03/07 00:29:04;;;;;;;18.25;9.07;;;;;;;;;;4953257;28;20099;-62
2022/03/07 00:31:29;;;;;;;16.92;8.60;;;;;;;;;;4952526;28;20384;-61
2022/03/07 00:33:55;;;;;;;20.40;7.97;;;;;;;;;;4951323;28;20624;-62
2022/03/07 00:36:20;;;;;;;14.73;8.32;;;;;;;;;;4951668;28;20425;-62
2022/03/07 00:38:47;;;;;;;15.52;7.38;;;;;;;;;;4953031;28;20436;-62
2022/03/07 00:41:12;;;;;;;14.07;7.75;;;;;;;;;;4951214;28;20391;-61
2022/03/07 00:43:39;;;;;;;16.70;8.32;;;;;;;;;;4950758;28;20109;-62
2022/03/07 00:46:04;;;;;;;17.13;8.25;;;;;;;;;;4951395;28;20400;-61
2022/03/07 00:48:29;;;;;;;15.10;7.65;;;;;;;;;;4951418;28;20376;-62
2022/03/07 00:50:55;;;;;;;14.88;8.70;;;;;;;;;;4951256;28;20517;-62
2022/03/07 00:53:23;;;;;;;16.00;8.80;;;;;;;;;;4951521;28;20429;-62
2022/03/07 00:55:49;;;;;;;18.52;8.50;;;;;;;;;;4951951;28;20488;-62
2022/03/07 00:58:15;;;;;;;20.83;8.55;;;;;;;;;;4951664;28;20440;-62
2022/03/07 01:00:40;;;;;;;18.77;8.82;;;;;;;;;;4953446;28;20449;-62
2022/03/07 01:03:07;;;;;;;16.13;8.13;;;;;;;;;;4959064;28;20501;-62
2022/03/07 01:05:33;;;;;;;20.17;8.45;;;;;;;;;;4953224;28;20457;-63
2022/03/07 01:07:58;;;;;;;15.10;7.47;;;;;;;;;;4951052;28;20156;-62
2022/03/07 01:10:24;;;;;;;13.15;8.10;;;;;;;;;;4951134;28;20440;-62
2022/03/07 01:12:50;;;;;;;21.02;8.30;;;;;;;;;;4952282;28;20456;-62
2022/03/07 01:15:16;;;;;;;15.95;7.82;;;;;;;;;;4949689;28;20048;-62
2022/03/07 01:17:41;;;;;;;15.73;8.05;;;;;;;;;;4950761;28;20432;-63
2022/03/07 01:20:09;;;;;;;13.90;7.40;;;;;;;;;;4951048;28;20328;-62
2022/03/07 01:22:34;;;;;;;15.30;7.55;;;;;;;;;;4950753;28;20424;-62
2022/03/07 01:25:00;;;;;;;15.20;8.13;;;;;;;;;;4951257;28;20370;-62
2022/03/07 01:27:25;;;;;;;14.02;7.57;;;;;;;;;;4951190;28;20531;-62
2022/03/07 01:29:51;;;;;;;19.80;8.57;;;;;;;;;;4951104;28;20338;-62
2022/03/07 01:32:16;;;;;;;20.52;8.55;;;;;;;;;;4950825;28;20356;-63
2022/03/07 01:34:42;;;;;;;15.82;8.30;;;;;;;;;;4950847;28;20164;-62
2022/03/07 01:37:07;;;;;;;12.27;7.55;;;;;;;;;;4950828;28;20348;-62
2022/03/07 01:39:32;;;;;;;17.08;8.40;;;;;;;;;;4950374;28;20503;-62
2022/03/07 01:41:57;;;;;;;13.77;8.00;;;;;;;;;;4949978;28;20124;-62
2022/03/07 01:44:25;;;;;;;20.00;7.93;;;;;;;;;;4950655;28;20560;-64
2022/03/07 01:46:51;;;;;;;18.17;8.75;;;;;;;;;;4951407;28;20337;-62
2022/03/07 01:49:18;;;;;;;13.38;8.02;;;;;;;;;;4950183;28;20038;-62
2022/03/07 01:51:44;;;;;;;14.55;7.80;;;;;;;;;;4951702;28;20345;-62
2022/03/07 01:54:11;;;;;;;21.40;8.13;;;;;;;;;;4949926;28;20107;-63
2022/03/07 01:56:36;;;;;;;16.92;8.88;;;;;;;;;;4950319;28;20437;-63
2022/03/07 01:59:04;;;;;;;16.15;8.30;;;;;;;;;;4950942;28;20403;-61
2022/03/07 02:01:31;;;;;;;14.77;8.75;;;;;;;;;;4950424;28;20461;-62
2022/03/07 02:03:56;;;;;;;15.10;8.00;;;;;;;;;;4950275;28;20433;-63
2022/03/07 02:06:22;;;;;;;12.43;7.43;;;;;;;;;;4950574;28;20348;-62
2022/03/07 02:08:49;;;;;;;13.13;7.68;;;;;;;;;;4950320;28;20453;-62
2022/03/07 02:11:15;;;;;;;14.40;7.95;;;;;;;;;;4950793;28;20338;-62
2022/03/07 02:13:41;;;;;;;12.50;7.25;;;;;;;;;;4951180;28;20511;-62
2022/03/07 02:16:06;;;;;;;15.98;7.95;;;;;;;;;;4949839;28;20380;-62
2022/03/07 02:18:31;;;;;;;17.27;8.18;;;;;;;;;;4949760;28;20520;-62
2022/03/07 02:21:08;;;;;;;15.55;8.25;;;;;;;;;;4949849;28;20018;-62
2022/03/07 02:23:34;;;;;;;17.05;9.07;;;;;;;;;;4950391;28;20358;-62
2022/03/07 02:26:00;;;;;;;15.13;7.80;;;;;;;;;;4932279;28;20412;-63
2022/03/07 02:28:25;;;;;;;16.10;8.63;;;;;;;;;;4951519;28;20060;-62
2022/03/07 02:30:51;;;;;;;15.55;7.90;;;;;;;;;;4932178;28;20447;-62
2022/03/07 02:33:17;;;;;;;17.70;8.13;;;;;;;;;;4950542;28;20474;-62
2022/03/07 02:35:42;;;;;;;15.27;7.53;;;;;;;;;;4950967;28;20380;-62
2022/03/07 02:38:13;;;;;;;12.40;7.93;;;;;;;;;;4949682;28;20145;-62
2022/03/07 02:40:38;;;;;;;14.93;8.52;;;;;;;;;;4949811;28;20053;-62
2022/03/07 02:43:04;;;;;;;16.05;8.20;;;;;;;;;;4949342;28;20054;-62
2022/03/07 02:45:29;;;;;;;14.68;7.78;;;;;;;;;;4949606;28;20492;-63
2022/03/07 02:47:54;;;;;;;14.80;8.02;;;;;;;;;;4950363;28;20532;-62
2022/03/07 02:50:20;;;;;;;15.68;8.52;;;;;;;;;;4949635;28;20349;-62
2022/03/07 02:52:45;;;;;;;13.80;7.18;;;;;;;;;;4949538;28;20315;-62
2022/03/07 02:55:10;;;;;;;17.95;8.27;;;;;;;;;;4949668;28;20464;-62
2022/03/07 02:57:36;;;;;;;13.93;8.55;;;;;;;;;;4949637;28;20425;-63
2022/03/07 03:00:01;;;;;;;15.13;7.97;;;;;;;;;;4949835;28;20556;-62
2022/03/07 03:02:27;;;;;;;14.98;8.07;;;;;;;;;;4949866;28;20181;-62
2022/03/07 03:04:52;;;;;;;19.90;8.27;;;;;;;;;;4949412;28;20468;-62
2022/03/07 03:07:17;;;;;;;16.73;7.95;;;;;;;;;;4953624;28;20449;-62
2022/03/07 03:09:45;;;;;;;14.80;8.63;;;;;;;;;;4955015;28;20413;-63
2022/03/07 03:12:11;;;;;;;13.00;8.40;;;;;;;;;;4953797;28;20056;-62
2022/03/07 03:14:39;;;;;;;18.70;8.77;;;;;;;;;;4954179;28;20362;-62
2022/03/07 03:17:04;;;;;;;13.32;7.95;;;;;;;;;;4954846;28;20420;-62
2022/03/07 03:19:29;;;;;;;16.10;8.45;;;;;;;;;;4935515;28;20050;-63
2022/03/07 03:21:54;;;;;;;14.05;7.80;;;;;;;;;;4953578;28;20430;-62
2022/03/07 03:24:20;;;;;;;13.30;7.60;;;;;;;;;;4954625;28;20434;-62
2022/03/07 03:26:45;;;;;;;21.85;8.27;;;;;;;;;;4953246;28;20091;-62
2022/03/07 03:29:10;;;;;;;15.27;8.32;;;;;;;;;;4953353;28;20396;-62
2022/03/07 03:31:36;;;;;;;14.50;8.07;;;;;;;;;;4952869;28;20432;-62
2022/03/07 03:34:01;;;;;;;12.48;8.32;;;;;;;;;;4952998;28;20480;-62
2022/03/07 03:36:26;;;;;;;14.07;8.18;;;;;;;;;;4952805;28;20512;-62
2022/03/07 03:38:52;;;;;;;13.20;8.35;;;;;;;;;;4952916;28;20511;-62
2022/03/07 03:41:17;;;;;;;13.15;8.15;;;;;;;;;;4952893;28;20460;-63
2022/03/07 03:43:42;;;;;;;16.92;7.80;;;;;;;;;;4953426;28;20465;-62
2022/03/07 03:46:08;;;;;;;17.17;9.20;;;;;;;;;;4953581;28;20426;-62
2022/03/07 03:48:33;;;;;;;15.98;8.20;;;;;;;;;;4953775;28;20120;-62
2022/03/07 03:50:58;;;;;;;17.67;7.80;;;;;;;;;;4952402;28;20338;-62
2022/03/07 03:53:24;;;;;;;15.00;8.38;;;;;;;;;;4952647;28;20022;-62
2022/03/07 03:55:49;;;;;;;14.90;8.73;;;;;;;;;;4952177;28;20457;-61
2022/03/07 03:58:14;;;;;;;15.30;8.10;;;;;;;;;;4952406;28;20397;-62
2022/03/07 04:00:40;;;;;;;14.88;8.13;;;;;;;;;;4953168;28;20453;-62
2022/03/07 04:03:05;;;;;;;19.15;9.45;;;;;;;;;;4964881;28;20397;-62
2022/03/07 04:05:30;;;;;;;17.00;8.75;;;;;;;;;;4952327;28;20492;-62
2022/03/07 04:07:56;;;;;;;13.20;8.43;;;;;;;;;;4952315;28;20337;-62
2022/03/07 04:10:21;;;;;;;17.25;8.27;;;;;;;;;;4951753;28;20511;-62
2022/03/07 04:12:46;;;;;;;17.63;8.70;;;;;;;;;;4952598;28;20511;-62
2022/03/07 04:15:12;;;;;;;15.40;8.10;;;;;;;;;;4952597;28;20449;-62
2022/03/07 04:17:39;;;;;;;14.57;8.35;;;;;;;;;;4951773;28;20373;-63
2022/03/07 04:20:05;;;;;;;12.77;7.75;;;;;;;;;;4952656;28;20314;-62
2022/03/07 04:22:30;;;;;;;13.35;8.32;;;;;;;;;;4952842;28;20351;-62
2022/03/07 04:24:55;;;;;;;16.05;7.72;;;;;;;;;;4952400;28;20413;-62
2022/03/07 04:27:21;;;;;;;14.80;8.73;;;;;;;;;;4951516;28;20433;-62
2022/03/07 04:29:46;;;;;;;15.60;8.02;;;;;;;;;;4951869;28;20356;-63
2022/03/07 04:32:12;;;;;;;18.80;7.95;;;;;;;;;;4951503;28;20434;-62
2022/03/07 04:34:37;;;;;;;17.30;8.23;;;;;;;;;;4952695;28;20290;-61
2022/03/07 04:37:02;;;;;;;15.40;8.07;;;;;;;;;;4952521;28;20068;-62
2022/03/07 04:39:28;;;;;;;17.52;8.68;;;;;;;;;;4951707;28;20348;-62
2022/03/07 04:41:53;;;;;;;17.85;8.43;;;;;;;;;;4933037;28;20447;-62
2022/03/07 04:44:18;;;;;;;14.48;8.50;;;;;;;;;;4951864;28;20429;-62
2022/03/07 04:46:44;;;;;;;14.90;8.43;;;;;;;;;;4952236;28;20335;-64
2022/03/07 04:49:11;;;;;;;12.02;6.97;;;;;;;;;;4951793;28;20025;-62
2022/03/07 04:51:37;;;;;;;13.40;7.70;;;;;;;;;;4951412;28;20408;-62
2022/03/07 04:54:03;;;;;;;15.38;7.68;;;;;;;;;;4951644;28;20396;-62
2022/03/07 04:56:28;;;;;;;14.80;8.18;;;;;;;;;;4951518;28;20489;-62
2022/03/07 04:58:53;;;;;;;18.00;8.90;;;;;;;;;;4952768;28;20084;-62
2022/03/07 05:01:19;;;;;;;13.02;7.75;;;;;;;;;;4934041;28;20476;-62
2022/03/07 05:03:44;;;;;;;13.82;8.25;;;;;;;;;;4950951;28;20453;-62
2022/03/07 05:06:10;;;;;;;15.20;8.50;;;;;;;;;;4952128;28;20436;-62
2022/03/07 05:08:38;;;;;;;12.85;7.70;;;;;;;;;;4951724;28;20388;-63
2022/03/07 05:11:03;;;;;;;13.40;7.72;;;;;;;;;;4952638;28;20073;-62
2022/03/07 05:13:29;;;;;;;17.20;7.80;;;;;;;;;;4951076;28;20092;-61
2022/03/07 05:15:54;;;;;;;14.05;8.00;;;;;;;;;;4951267;28;20532;-62
2022/03/07 05:18:19;;;;;;;15.90;7.82;;;;;;;;;;4952406;28;20364;-62
2022/03/07 05:20:44;;;;;;;14.40;7.53;;;;;;;;;;4950965;28;20325;-63
2022/03/07 05:23:10;;;;;;;12.63;7.32;;;;;;;;;;4950571;28;20488;-62
2022/03/07 05:25:35;;;;;;;12.20;8.40;;;;;;;;;;4951166;28;20368;-62
2022/03/07 05:28:01;;;;;;;14.50;7.18;;;;;;;;;;4950082;28;20457;-62
2022/03/07 05:30:26;;;;;;;12.05;7.47;;;;;;;;;;4950667;28;20188;-63
2022/03/07 05:32:53;;;;;;;14.77;7.35;;;;;;;;;;4950664;28;20456;-62
2022/03/07 05:35:19;;;;;;;16.25;8.45;;;;;;;;;;4951097;28;20388;-63
2022/03/07 05:37:45;;;;;;;15.18;7.60;;;;;;;;;;4950757;28;20369;-62
2022/03/07 05:40:12;;;;;;;15.02;8.10;;;;;;;;;;4950550;28;20349;-61
2022/03/07 05:42:38;;;;;;;18.17;8.10;;;;;;;;;;4950698;28;20408;-63
2022/03/07 05:45:08;;;;;;;14.70;7.88;;;;;;;;;;4933844;28;20393;-62
2022/03/07 05:47:33;;;;;;;14.52;7.82;;;;;;;;;;4950634;28;20397;-62
2022/03/07 05:49:58;;;;;;;12.65;7.82;;;;;;;;;;4951563;28;20033;-62
2022/03/07 05:52:24;;;;;;;11.77;7.47;;;;;;;;;;4950022;28;20396;-62
2022/03/07 05:54:49;;;;;;;14.23;7.93;;;;;;;;;;4949914;28;20413;-62
2022/03/07 05:57:15;;;;;;;14.98;7.70;;;;;;;;;;4950405;28;20526;-62
2022/03/07 05:59:40;;;;;;;12.63;8.60;;;;;;;;;;4950396;28;20426;-62
2022/03/07 06:02:06;;;;;;;12.00;6.90;;;;;;;;;;4950587;28;20401;-62
2022/03/07 06:04:31;;;;;;;14.15;7.40;;;;;;;;;;4950139;28;20329;-62
2022/03/07 06:06:56;;;;;;;12.15;7.18;;;;;;;;;;4950014;28;20448;-61
2022/03/07 06:09:22;;;;;;;11.95;7.03;;;;;;;;;;4949962;28;20456;-62
2022/03/07 06:11:47;;;;;;;15.75;8.90;;;;;;;;;;4950238;28;20372;-63
2022/03/07 06:14:13;;;;;;;14.43;8.57;;;;;;;;;;4950169;28;20099;-62
2022/03/07 06:16:38;;;;;;;19.48;9.10;;;;;;;;;;4932510;28;20440;-62
2022/03/07 06:19:03;;;;;;;17.35;8.43;;;;;;;;;;4949758;28;20373;-63
2022/03/07 06:21:29;;;;;;;13.55;7.78;;;;;;;;;;4950517;28;20022;-62
2022/03/07 06:23:54;;;;;;;16.98;8.52;;;;;;;;;;4949719;28;20056;-63
2022/03/07 06:26:19;;;;;;;18.30;7.97;;;;;;;;;;4951644;28;20428;-61
2022/03/07 06:28:44;;;;;;;16.52;8.73;;;;;;;;;;4949901;28;20317;-62
2022/03/07 06:31:10;;;;;;;13.50;8.15;;;;;;;;;;4950449;28;20457;-62
2022/03/07 06:33:36;;;;;;;13.98;7.85;;;;;;;;;;4949600;28;20507;-63
2022/03/07 06:36:04;;;;;;;15.77;8.90;;;;;;;;;;4950082;28;20429;-62
2022/03/07 06:38:29;;;;;;;15.73;8.53;;;;;;;;;;4932353;28;20053;-62
2022/03/07 06:40:55;;;;;;;20.80;8.40;;;;;;;;;;4954126;28;20728;-62
2022/03/07 06:43:20;;;;;;;13.43;8.65;;;;;;;;;;4953443;28;20064;-61
2022/03/07 06:45:45;;;;;;;12.25;7.93;;;;;;;;;;4954118;28;20455;-62
2022/03/07 06:48:11;;;;;;;15.48;8.88;;;;;;;;;;4954314;28;20326;-62
2022/03/07 06:50:36;;;;;;;13.02;8.35;;;;;;;;;;4953634;28;20421;-62
2022/03/07 06:53:02;;;;;;;14.80;8.48;;;;;;;;;;4953569;28;20425;-62
2022/03/07 06:55:27;;;;;;;12.95;8.48;;;;;;;;;;4953643;28;20461;-62
2022/03/07 06:57:52;;;;;;;15.73;7.75;;;;;;;;;;4953829;28;20038;-62
2022/03/07 07:00:19;;;;;;;12.73;7.60;;;;;;;;;;4953163;28;20341;-62
2022/03/07 07:02:45;;;;;;;15.23;7.63;;;;;;;;;;4953535;28;20527;-62
2022/03/07 07:05:11;;;;;;;15.57;8.00;;;;;;;;;;4953246;28;20315;-62
2022/03/07 07:07:37;;;;;;;14.77;7.45;;;;;;;;;;4935648;28;20404;-62
2022/03/07 07:10:04;;;;;;;13.27;7.68;;;;;;;;;;4953084;28;20369;-62
2022/03/07 07:12:29;;;;;;;16.90;8.43;;;;;;;;;;4954291;28;20387;-62
2022/03/07 07:14:55;;;;;;;13.73;8.20;;;;;;;;;;4953541;28;20340;-62
2022/03/07 07:17:20;;;;;;;13.77;7.32;;;;;;;;;;4953027;28;20030;-62
2022/03/07 07:19:45;;;;;;;16.50;8.27;;;;;;;;;;4953464;28;20107;-62
2022/03/07 07:22:11;;;;;;;13.65;7.65;;;;;;;;;;4936363;28;20426;-62
2022/03/07 07:24:36;;;;;;;13.75;7.78;;;;;;;;;;4953106;28;20365;-63
2022/03/07 07:27:02;;;;;;;17.65;8.52;;;;;;;;;;4952907;28;20412;-61
2022/03/07 07:29:27;;;;;;;13.60;7.85;;;;;;;;;;4954778;28;20425;-62
2022/03/07 07:31:52;;;;;;;13.40;7.07;;;;;;;;;;4952911;28;20418;-62
2022/03/07 07:34:19;;;;;;;16.15;7.72;;;;;;;;;;4953688;28;20424;-62
2022/03/07 07:36:44;;;;;;;19.75;8.30;;;;;;;;;;4954470;28;20297;-62
2022/03/07 07:39:10;;;;;;;15.02;8.88;;;;;;;;;;4952650;28;20323;-62
2022/03/07 07:41:35;;;;;;;17.30;8.60;;;;;;;;;;4953248;28;20038;-62
2022/03/07 07:44:01;;;;;;;13.70;7.50;;;;;;;;;;4952396;28;20054;-62
2022/03/07 07:46:28;;;;;;;15.52;8.07;;;;;;;;;;4953729;28;20384;-62
2022/03/07 07:48:56;;;;;;;14.93;7.82;;;;;;;;;;4953483;28;20417;-62
2022/03/07 07:51:21;;;;;;;16.15;8.48;;;;;;;;;;4951942;28;20469;-62
2022/03/07 07:53:47;;;;;;;12.30;7.05;;;;;;;;;;4952173;28;20508;-62
2022/03/07 07:56:12;;;;;;;17.05;8.02;;;;;;;;;;4952623;28;20030;-62
2022/03/07 07:58:39;;;;;;;15.98;7.93;;;;;;;;;;4953376;28;20411;-61
2022/03/07 08:01:04;;;;;;;15.70;7.90;;;;;;;;;;4952418;28;20156;-63
2022/03/07 08:03:30;;;;;;;16.02;8.20;;;;;;;;;;4952138;28;20121;-62
2022/03/07 08:05:55;;;;;;;17.20;7.57;;;;;;;;;;4952149;28;20095;-62
2022/03/07 08:08:20;;;;;;;15.30;7.97;;;;;;;;;;4952653;28;20348;-61
2022/03/07 08:10:46;;;;;;;14.77;7.38;;;;;;;;;;4952182;28;20365;-62
2022/03/07 08:13:11;;;;;;;16.33;7.75;;;;;;;;;;4934467;28;20030;-62
2022/03/07 08:15:36;;;;;;;15.65;8.10;;;;;;;;;;4953257;28;20513;-62
2022/03/07 08:18:02;;;;;;;15.05;7.68;;;;;;;;;;4951630;28;20492;-62
2022/03/07 08:20:27;;;;;;;15.63;7.50;;;;;;;;;;4952291;28;20372;-63
2022/03/07 08:22:54;;;;;;;13.57;7.20;;;;;;;;;;4952556;28;20147;-62
2022/03/07 08:25:21;;;;;;;13.07;7.13;;;;;;;;;;4951870;28;20400;-62
2022/03/07 08:27:47;;;;;;;15.18;7.68;;;;;;;;;;4951839;28;20533;-63
2022/03/07 08:30:14;;;;;;;16.42;7.20;;;;;;;;;;4951863;28;20393;-63
2022/03/07 08:32:42;;;;;;;17.70;9.02;;;;;;;;;;4951894;28;20400;-62
2022/03/07 08:35:09;;;;;;;14.52;7.72;;;;;;;;;;4952386;28;20310;-62
2022/03/07 08:37:35;;;;;;;14.82;8.65;;;;;;;;;;4951694;28;20044;-63
2022/03/07 08:40:02;;;;;;;13.80;7.10;;;;;;;;;;4951433;28;20422;-63
2022/03/07 08:42:27;;;;;;;19.05;7.55;;;;;;;;;;4952513;28;20461;-62
2022/03/07 08:44:53;;;;;;;18.60;7.30;;;;;;;;;;4951608;28;20329;-63
2022/03/07 08:47:19;;;;;;;12.63;6.95;;;;;;;;;;4952294;28;20459;-62
2022/03/07 08:49:44;;;;;;;12.25;7.25;;;;;;;;;;4951584;28;20441;-63
2022/03/07 08:52:10;;;;;;;17.23;7.97;;;;;;;;;;4951184;28;20472;-62
2022/03/07 08:54:35;;;;;;;14.25;8.02;;;;;;;;;;4952144;28;20350;-63
2022/03/07 08:57:01;;;;;;;15.52;7.70;;;;;;;;;;4951207;28;20333;-62
2022/03/07 08:59:28;;;;;;;11.65;7.43;;;;;;;;;;4951605;28;20112;-62
2022/03/07 09:01:56;;;;;;;15.75;8.82;;;;;;;;;;4933619;28;20361;-62
2022/03/07 09:04:21;;;;;;;14.40;7.43;;;;;;;;;;4951285;28;20356;-63
2022/03/07 09:06:47;;;;;;;12.45;6.90;;;;;;;;;;4951613;28;20033;-63
2022/03/07 09:09:12;;;;;;;14.13;7.88;;;;;;;;;;4951551;28;20069;-63
2022/03/07 09:11:38;;;;;;;14.60;7.95;;;;;;;;;;4951422;28;20492;-63
2022/03/07 09:14:03;;;;;;;13.27;6.63;;;;;;;;;;4951303;28;20306;-62
2022/03/07 09:16:28;;;;;;;13.43;7.65;;;;;;;;;;4950986;28;20520;-62
2022/03/07 09:18:53;;;;;;;14.75;7.90;;;;;;;;;;4950928;28;20505;-62
2022/03/07 09:21:19;;;;;;;13.00;6.95;;;;;;;;;;4951372;28;20327;-62
2022/03/07 09:23:46;;;;;;;14.43;7.70;;;;;;;;;;4951451;28;20497;-63
2022/03/07 09:26:13;;;;;;;11.90;6.68;;;;;;;;;;4951900;28;20361;-63
2022/03/07 09:28:38;;;;;;;13.77;6.93;;;;;;;;;;4950585;28;20033;-63
2022/03/07 09:31:04;;;;;;;16.70;7.43;;;;;;;;;;4950595;28;20508;-62
2022/03/07 09:33:29;;;;;;;13.93;7.18;;;;;;;;;;4951958;28;20417;-62
2022/03/07 09:35:55;;;;;;;13.18;7.68;;;;;;;;;;4950620;28;20465;-62
2022/03/07 09:38:20;;;;;;;14.10;7.78;;;;;;;;;;4933443;28;20376;-62
2022/03/07 09:40:46;;;;;;;12.00;7.20;;;;;;;;;;4951085;28;20056;-62
2022/03/07 09:43:13;;;;;;;11.30;6.07;;;;;;;;;;4931571;28;20366;-62
2022/03/07 09:45:38;;;;;;;10.77;6.03;;;;;;;;;;4950637;28;20472;-62
2022/03/07 09:48:04;;;;;;;13.43;6.88;;;;;;;;;;4950500;28;20349;-63
2022/03/07 09:50:30;;;;;;;13.20;8.10;;;;;;;;;;4916487;28;20496;-63
2022/03/07 09:52:55;;;;;;;15.18;6.95;;;;;;;;;;4950293;28;20442;-63
2022/03/07 09:55:22;;;;;;;13.02;6.85;;;;;;;;;;4950042;28;20445;-63
2022/03/07 09:57:48;;;;;;;13.00;6.72;;;;;;;;;;4950623;28;20611;-62
2022/03/07 10:00:15;;;;;;;20.50;6.88;;;;;;;;;;4950265;28;20425;-62
2022/03/07 10:02:51;;;;;;;13.52;6.18;;;;;;;;;;4950136;28;20460;-63
2022/03/07 10:05:17;;;;;;;15.38;6.95;;;;;;;;;;4950233;28;20414;-63
2022/03/07 10:07:44;;;;;;;15.38;6.18;;;;;;;;;;4949919;28;20484;-63
2022/03/07 10:10:09;;;;;;;12.68;6.28;;;;;;;;;;4950344;28;20453;-63
2022/03/07 10:12:47;;;;;;;14.88;7.20;;;;;;;;;;4949987;28;20484;-62
2022/03/07 10:15:14;;;;;;;15.35;7.22;;;;;;;;;;4950569;28;20429;-62
2022/03/07 10:17:45;;;;;;;14.75;6.28;;;;;;;;;;4950154;28;20394;-64
2022/03/07 10:20:10;;;;;;;11.73;5.90;;;;;;;;;;4931900;28;20324;-63
2022/03/07 10:22:43;;;;;;;15.23;7.45;;;;;;;;;;4950019;28;20029;-63
2022/03/07 10:25:09;;;;;;;11.98;6.00;;;;;;;;;;4949659;28;20408;-62
2022/03/07 10:27:38;;;;;;;14.32;6.05;;;;;;;;;;4950052;28;20384;-62
2022/03/07 10:30:09;;;;;;;15.63;6.90;;;;;;;;;;4949654;28;20069;-62
2022/03/07 10:32:34;;;;;;;17.65;5.72;;;;;;;;;;4949710;28;20369;-62
2022/03/07 10:34:59;;;;;;;13.40;5.68;;;;;;;;;;4950668;28;20029;-62
2022/03/07 10:37:38;;;;;;;13.35;6.22;;;;;;;;;;4949993;28;20516;-63
2022/03/07 10:40:18;;;;;;;11.82;6.38;;;;;;;;;;4949958;28;20345;-62
2022/03/07 10:42:45;;;;;;;12.50;6.47;;;;;;;;;;4949497;28;20361;-63
2022/03/07 10:45:10;;;;;;;13.10;6.10;;;;;;;;;;4949651;28;20499;-62
2022/03/07 10:47:36;;;;;;;13.27;5.65;;;;;;;;;;4949319;28;20400;-63
2022/03/07 10:50:03;;;;;;;11.50;5.50;;;;;;;;;;4950299;28;20414;-62
2022/03/07 10:52:41;;;;;;;11.77;5.95;;;;;;;;;;4949525;28;20521;-62
2022/03/07 10:55:11;;;;;;;8.98;5.35;;;;;;;;;;4950297;28;20490;-63
2022/03/07 10:57:39;;;;;;;12.88;6.30;;;;;;;;;;4949799;28;20445;-62
2022/03/07 11:00:17;;;;;;;11.32;6.43;;;;;;;;;;4949952;28;20029;-63
2022/03/07 11:02:47;;;;;;;10.82;4.85;;;;;;;;;;4950122;28;20421;-62
2022/03/07 11:05:14;;;;;;;11.02;5.70;;;;;;;;;;4950455;28;20350;-63
2022/03/07 11:07:41;;;;;;;10.15;4.80;;;;;;;;;;4950758;28;20415;-62
2022/03/07 11:10:08;;;;;;;12.98;5.93;;;;;;;;;;4949239;28;20385;-62
2022/03/07 11:12:34;;;;;;;16.23;6.20;;;;;;;;;;4949692;28;20449;-63
2022/03/07 11:15:00;;;;;;;11.70;5.80;;;;;;;;;;4949073;28;20446;-63
2022/03/07 11:17:26;;;;;;;10.43;4.93;;;;;;;;;;4950501;28;20115;-62
2022/03/07 11:19:54;;;;;;;12.75;5.68;;;;;;;;;;4932625;28;20449;-63
2022/03/07 11:22:20;;;;;;;10.25;4.97;;;;;;;;;;4949886;28;20061;-62
2022/03/07 11:24:45;;;;;;;12.23;5.88;;;;;;;;;;4950449;28;20433;-62
2022/03/07 11:27:11;;;;;;;11.30;5.20;;;;;;;;;;4771580;28;5001147;-63
2022/03/07 11:29:38;;;;;;;12.15;4.78;;;;;;;;;;4973829;28;20460;-63
2022/03/07 11:32:07;;;;;;;15.63;6.10;;;;;;;;;;4973223;28;20440;-62
2022/03/07 11:34:33;;;;;;;10.35;4.80;;;;;;;;;;4972740;28;20395;-62
2022/03/07 11:36:59;;;;;;;12.45;4.43;;;;;;;;;;4972258;28;20400;-62
2022/03/07 11:39:36;;;;;;;9.27;5.28;;;;;;;;;;4972986;28;20440;-62
2022/03/07 11:42:12;;;;;;;12.77;5.55;;;;;;;;;;4971955;28;20337;-64
2022/03/07 11:44:38;;;;;;;8.60;4.93;;;;;;;;;;4973199;28;20333;-62
2022/03/07 11:47:11;;;;;;;9.60;4.68;;;;;;;;;;4973152;28;20145;-63
2022/03/07 11:49:37;;;;;;;10.45;4.85;;;;;;;;;;4972042;28;20496;-62
2022/03/07 11:52:14;;;;;;;9.52;4.75;;;;;;;;;;4954334;28;20387;-62
2022/03/07 11:54:51;;;;;;;9.00;4.72;;;;;;;;;;4972546;28;20456;-62
2022/03/07 11:57:17;;;;;;;7.00;3.55;;;;;;;;;;4972196;28;20052;-64
2022/03/07 11:59:43;;;;;;;11.50;4.50;;;;;;;;;;4972667;28;20330;-63
2022/03/07 12:02:08;;;;;;;11.18;4.80;;;;;;;;;;4972585;28;20332;-62
2022/03/07 12:04:44;;;;;;;11.27;4.55;;;;;;;;;;4972064;28;20369;-62
2022/03/07 12:07:10;;;;;;;8.82;4.55;;;;;;;;;;4971888;28;20108;-63
2022/03/07 12:09:37;;;;;;;8.77;4.15;;;;;;;;;;4973191;28;20461;-63
2022/03/07 12:12:10;;;;;;;9.90;4.55;;;;;;;;;;4971541;28;20030;-63
2022/03/07 12:14:39;;;;;;;8.73;3.95;;;;;;;;;;4972037;28;20037;-63
2022/03/07 12:17:12;;;;;;;6.40;4.40;;;;;;;;;;4972152;28;20455;-63
2022/03/07 12:19:39;;;;;;;9.23;3.97;;;;;;;;;;4971865;28;20439;-63
2022/03/07 12:22:13;;;;;;;12.20;5.18;;;;;;;;;;4971963;28;20516;-63
2022/03/07 12:24:39;;;;;;;9.13;4.38;;;;;;;;;;4971429;28;20464;-63
2022/03/07 12:27:05;;;;;;;7.28;4.20;;;;;;;;;;4971688;28;20507;-63
2022/03/07 12:29:30;;;;;;;9.05;4.05;;;;;;;;;;4971670;28;20429;-63
2022/03/07 12:31:58;;;;;;;6.57;3.90;;;;;;;;;;4973989;28;20033;-62
2022/03/07 12:34:25;;;;;;;10.73;4.28;;;;;;;;;;4972709;28;20030;-63
2022/03/07 12:37:12;;;;;;;10.73;5.30;;;;;;;;;;4971711;28;20298;-63
2022/03/07 12:39:57;;;;;;;7.57;4.72;;;;;;;;;;4971339;28;20574;-63
2022/03/07 12:42:25;;;;;;;12.50;5.03;;;;;;;;;;4972360;28;20417;-63
2022/03/07 12:44:50;;;;;;;9.02;4.25;;;;;;;;;;4970843;28;20464;-62
2022/03/07 12:47:19;;;;;;;10.50;4.78;;;;;;;;;;4971140;28;20467;-63
2022/03/07 12:49:49;;;;;;;7.82;3.97;;;;;;;;;;4971208;28;20364;-62
2022/03/07 12:52:31;;;;;;;11.23;5.00;;;;;;;;;;4971025;28;20444;-62
2022/03/07 12:54:58;;;;;;;7.75;3.75;;;;;;;;;;4972535;28;20308;-62
2022/03/07 12:57:24;;;;;;;11.73;4.30;;;;;;;;;;4970736;28;20119;-62
2022/03/07 12:59:57;;;;;;;10.05;4.53;;;;;;;;;;4971012;28;20337;-62
2022/03/07 13:02:22;;;;;;;8.88;4.15;;;;;;;;;;4971064;28;20061;-63
2022/03/07 13:04:53;;;;;;;9.88;3.67;;;;;;;;;;4971115;28;20435;-62
2022/03/07 13:07:18;;;;;;;9.23;4.15;;;;;;;;;;4953166;28;20054;-62
2022/03/07 13:09:44;;;;;;;7.32;3.75;;;;;;;;;;4982698;28;20032;-62
2022/03/07 13:12:10;;;;;;;10.10;3.90;;;;;;;;;;4970693;28;20456;-64
2022/03/07 13:14:37;;;;;;;11.30;4.47;;;;;;;;;;4970483;28;20461;-63
2022/03/07 13:17:17;;;;;;;7.38;4.00;;;;;;;;;;4970958;28;20404;-62
2022/03/07 13:19:46;;;;;;;9.05;3.65;;;;;;;;;;4970980;28;20049;-63
2022/03/07 13:22:12;;;;;;;9.48;4.43;;;;;;;;;;4970342;28;20356;-63
2022/03/07 13:24:38;;;;;;;11.45;3.50;;;;;;;;;;4971407;28;20364;-63
2022/03/07 13:27:13;;;;;;;9.23;3.72;;;;;;;;;;4970601;28;20445;-62
2022/03/07 13:29:41;;;;;;;6.40;3.65;;;;;;;;;;4970306;28;20499;-62
2022/03/07 13:32:17;;;;;;;8.90;3.72;;;;;;;;;;4970325;28;20464;-62
2022/03/07 13:34:48;;;;;;;7.57;3.67;;;;;;;;;;4970358;28;20029;-63
2022/03/07 13:37:16;;;;;;;8.10;3.72;;;;;;;;;;4969902;28;20445;-63
2022/03/07 13:39:42;;;;;;;8.23;4.53;;;;;;;;;;4970577;28;20352;-63
2022/03/07 13:42:12;;;;;;;12.75;4.65;;;;;;;;;;4970228;28;20389;-62
2022/03/07 13:44:53;;;;;;;6.25;3.97;;;;;;;;;;4970027;28;20505;-63
2022/03/07 13:47:26;;;;;;;7.50;3.63;;;;;;;;;;4970246;28;20408;-63
2022/03/07 13:49:54;;;;;;;7.32;3.55;;;;;;;;;;4969372;28;20522;-63
2022/03/07 13:52:27;;;;;;;7.88;4.20;;;;;;;;;;4971207;28;20033;-63
2022/03/07 13:54:54;;;;;;;7.88;3.53;;;;;;;;;;4970306;28;20454;-62
2022/03/07 13:57:20;;;;;;;8.88;3.83;;;;;;;;;;4970121;28;20365;-62
2022/03/07 13:59:53;;;;;;;7.40;3.38;;;;;;;;;;4969823;28;20029;-62
2022/03/07 14:02:18;;;;;;;10.18;3.90;;;;;;;;;;4969941;28;20136;-63
2022/03/07 14:05:01;;;;;;;10.15;4.13;;;;;;;;;;4969739;28;20025;-62
2022/03/07 14:07:28;;;;;;;9.05;3.97;;;;;;;;;;4970186;28;20033;-62
2022/03/07 14:10:17;;;;;;;8.73;3.40;;;;;;;;;;4970320;28;20433;-63
2022/03/07 14:12:50;;;;;;;8.73;3.90;;;;;;;;;;4969512;28;20452;-62
2022/03/07 14:15:15;;;;;;;6.28;3.22;;;;;;;;;;4970458;28;20278;-63
2022/03/07 14:17:41;;;;;;;8.57;3.80;;;;;;;;;;4969445;28;20099;-63
2022/03/07 14:20:09;;;;;;;9.60;4.40;;;;;;;;;;4969712;28;20376;-62
2022/03/07 14:22:35;;;;;;;9.50;3.40;;;;;;;;;;4960842;28;20365;-63
2022/03/07 14:25:01;;;;;;;9.60;4.20;;;;;;;;;;4969663;28;20869;-62
2022/03/07 14:27:32;;;;;;;7.90;3.85;;;;;;;;;;4969218;28;20574;-64